Change the Weather History Date:

Monday, April 29, 2013

  Actual Average Record
Temperature  
Mean Temperature 72 °F -  
Max Temperature 90 °F 73 °F 91 °F (1967)
Min Temperature 54 °F 45 °F 32 °F (1965)
Cooling Degree Days 7    
Growing Degree Days 22 (Base 50)    
Moisture  
Dew Point 32 °F    
Average Humidity 25    
Maximum Humidity 48    
Minimum Humidity 10    
Precipitation  
Precipitation 0.00 in - - ()
Sea Level Pressure  
Sea Level Pressure 29.77 in    
Wind  
Wind Speed 19 mph (SSW)    
Max Wind Speed 29 mph    
Max Gust Speed 37 mph    
Visibility 10 miles    
Events      
Averages and records for this station are not official NWS values.
T = Trace of Precipitation, MM = Missing Value Source: NWS Daily Summary

Daily Weather History Graph

Daily Weather History Graph

Search for Another Location

Airport or City:

Trip Planner

Search our weather history database for the weather conditions in past years. The results will help you decide how hot, cold, wet, or windy it might be!

Date:

Astronomy

Apr. 29, 2013 Rise Set
Actual Time 6:53 AM CDT 8:29 PM CDT
Civil Twilight 6:26 AM CDT 8:56 PM CDT
Nautical Twilight 5:54 AM CDT 9:29 PM CDT
Astronomical Twilight 5:19 AM CDT 10:03 PM CDT
Moon No Moon Rise 10:20 AM CDT (4/29)
Length of Visible Light 14h 29m
Length of Day
13h 35m
Waning Gibbous, 80% of the Moon is Illuminated
Apr 29
Waning Gibbous
May 2
Last Quarter
May 9
New
May 17
First Quarter
May 24
Full

Hourly Weather History & Observations

Time (CDT) Temp. Dew Point Humidity Pressure Visibility Wind Dir Wind Speed Gust Speed Precip Events Conditions
12:15 AM 65.5 °F 34.2 °F 31% 29.84 in 10.0 mi South 17.3 mph - N/A   Clear
12:35 AM 64.8 °F 34.2 °F 32% 29.84 in 10.0 mi SSW 17.3 mph - N/A   Clear
12:55 AM 63.7 °F 34.0 °F 33% 29.84 in 10.0 mi South 16.1 mph - N/A   Clear
1:15 AM 63.5 °F 34.0 °F 33% 29.84 in 10.0 mi SSW 16.1 mph - N/A   Clear
1:35 AM 63.0 °F 33.8 °F 34% 29.85 in 10.0 mi SSW 15.0 mph - N/A   Clear
1:55 AM 61.7 °F 33.8 °F 35% 29.85 in 10.0 mi SSW 12.7 mph - N/A   Clear
2:15 AM 60.1 °F 34.0 °F 38% 29.84 in 10.0 mi South 12.7 mph - N/A   Clear
2:35 AM 59.9 °F 34.0 °F 38% 29.84 in 10.0 mi South 13.8 mph - N/A   Clear
2:55 AM 58.1 °F 34.3 °F 41% 29.83 in 10.0 mi South 11.5 mph - N/A   Clear
3:15 AM 55.9 °F 34.3 °F 44% 29.84 in 10.0 mi South 11.5 mph - N/A   Clear
3:35 AM 55.4 °F 34.2 °F 45% 29.83 in 10.0 mi South 11.5 mph - N/A   Clear
3:55 AM 54.5 °F 34.3 °F 47% 29.83 in 10.0 mi South 12.7 mph - N/A   Clear
4:15 AM 56.8 °F 34.2 °F 42% 29.83 in 10.0 mi SSW 13.8 mph - N/A   Clear
4:35 AM 57.4 °F 33.8 °F 41% 29.83 in 10.0 mi SSW 13.8 mph - N/A   Clear
4:55 AM 59.0 °F 33.8 °F 39% 29.83 in 10.0 mi SSW 17.3 mph - N/A   Clear
5:15 AM 59.9 °F 34.2 °F 38% 29.83 in 10.0 mi SSW 18.4 mph 23.0 mph N/A   Clear
5:35 AM 60.1 °F 34.7 °F 39% 29.83 in 10.0 mi SSW 17.3 mph - N/A   Clear
5:55 AM 59.4 °F 35.2 °F 40% 29.83 in 10.0 mi SSW 18.4 mph - N/A   Clear
6:15 AM 58.1 °F 36.3 °F 44% 29.84 in 10.0 mi SSW 16.1 mph - N/A   Clear
6:35 AM 57.7 °F 37.2 °F 46% 29.84 in 10.0 mi SW 17.3 mph 20.7 mph N/A   Clear
6:55 AM 58.8 °F 37.4 °F 45% 29.84 in 10.0 mi SSW 19.6 mph - N/A   Clear
7:15 AM 57.2 °F 37.4 °F 48% 29.84 in 10.0 mi SW 13.8 mph - N/A   Clear
7:35 AM 60.6 °F 38.3 °F 44% 29.84 in 10.0 mi WSW 20.7 mph 26.5 mph N/A   Clear
7:55 AM 63.5 °F 38.3 °F 39% 29.84 in 10.0 mi WSW 24.2 mph 32.2 mph N/A   Clear
8:15 AM 65.3 °F 37.8 °F 36% 29.84 in 10.0 mi SW 25.3 mph 34.5 mph N/A   Clear
8:35 AM 66.4 °F 37.6 °F 35% 29.84 in 10.0 mi SW 24.2 mph 35.7 mph N/A   Clear
8:55 AM 68.0 °F 37.6 °F 33% 29.84 in 10.0 mi SW 28.8 mph 36.8 mph N/A   Clear
9:15 AM 70.2 °F 37.9 °F 31% 29.84 in 10.0 mi SW 25.3 mph 29.9 mph N/A   Clear
9:35 AM 72.7 °F 37.9 °F 28% 29.84 in 10.0 mi SW 26.5 mph 32.2 mph N/A   Clear
9:55 AM 74.3 °F 37.8 °F 27% 29.84 in 10.0 mi SW 27.6 mph 33.4 mph N/A   Clear
10:15 AM 76.5 °F 37.6 °F 25% 29.84 in 10.0 mi WSW 27.6 mph 32.2 mph N/A   Clear
10:35 AM 78.1 °F 37.0 °F 23% 29.83 in 10.0 mi SW 24.2 mph 33.4 mph N/A   Clear
10:55 AM 80.6 °F 35.6 °F 20% 29.83 in 10.0 mi SW 28.8 mph 33.4 mph N/A   Clear
11:15 AM 81.7 °F 34.3 °F 18% 29.83 in 10.0 mi WSW 27.6 mph 35.7 mph N/A   Clear
11:35 AM 82.6 °F 33.4 °F 17% 29.83 in 10.0 mi SW 25.3 mph 33.4 mph N/A   Clear
11:55 AM 84.0 °F 33.4 °F 16% 29.82 in 10.0 mi SW 24.2 mph 34.5 mph N/A   Clear
12:15 PM 84.4 °F 33.1 °F 16% 29.81 in 10.0 mi SW 24.2 mph 35.7 mph N/A   Clear
12:35 PM 85.6 °F 33.1 °F 15% 29.81 in 10.0 mi SW 26.5 mph 36.8 mph N/A   Clear
12:55 PM 86.2 °F 31.6 °F 14% 29.80 in 10.0 mi SW 24.2 mph 33.4 mph N/A   Clear
1:15 PM 86.4 °F 30.2 °F 13% 29.79 in 10.0 mi SW 27.6 mph 34.5 mph N/A   Clear
1:35 PM 87.1 °F 30.0 °F 13% 29.78 in 10.0 mi SW 28.8 mph 35.7 mph N/A   Clear
1:55 PM 87.8 °F 30.4 °F 13% 29.77 in 10.0 mi SSW 25.3 mph 33.4 mph N/A   Clear
2:15 PM 87.8 °F 30.0 °F 13% 29.76 in 10.0 mi SW 24.2 mph 34.5 mph N/A   Clear
2:35 PM 88.3 °F 29.5 °F 12% 29.76 in 10.0 mi SW 18.4 mph 34.5 mph N/A   Clear
2:55 PM 89.6 °F 30.4 °F 12% 29.74 in 10.0 mi SW 20.7 mph 31.1 mph N/A   Clear
3:15 PM 89.8 °F 30.0 °F 12% 29.73 in 10.0 mi SSW 24.2 mph 31.1 mph N/A   Clear
3:35 PM 89.6 °F 29.1 °F 11% 29.73 in 10.0 mi SSW 21.9 mph 36.8 mph N/A   Clear
3:55 PM 89.6 °F 28.6 °F 11% 29.71 in 10.0 mi SSW 24.2 mph 34.5 mph N/A   Clear
4:15 PM 90.0 °F 27.7 °F 11% 29.70 in 10.0 mi SW 23.0 mph 33.4 mph N/A   Clear
4:35 PM 90.1 °F 27.5 °F 11% 29.69 in 10.0 mi SSW 24.2 mph 31.1 mph N/A   Clear
4:55 PM 89.6 °F 27.1 °F 11% 29.68 in 10.0 mi SSW 21.9 mph 33.4 mph N/A   Clear
5:15 PM 88.9 °F 26.8 °F 11% 29.68 in 10.0 mi SW 21.9 mph 27.6 mph N/A   Clear
5:35 PM 89.2 °F 25.9 °F 10% 29.68 in 10.0 mi SW 18.4 mph 31.1 mph N/A   Clear
5:55 PM 88.9 °F 26.1 °F 10% 29.67 in 10.0 mi SW 23.0 mph 28.8 mph N/A   Clear
6:15 PM 89.4 °F 26.6 °F 10% 29.66 in 10.0 mi SSW 19.6 mph 28.8 mph N/A   Clear
6:35 PM 87.6 °F 25.9 °F 11% 29.66 in 10.0 mi SSW 18.4 mph 26.5 mph N/A   Clear
6:55 PM 87.3 °F 25.5 °F 11% 29.65 in 10.0 mi South 21.9 mph 26.5 mph N/A   Clear
7:15 PM 86.4 °F 26.4 °F 11% 29.65 in 10.0 mi SSW 20.7 mph 26.5 mph N/A   Clear
7:35 PM 84.7 °F 26.6 °F 12% 29.65 in 10.0 mi South 19.6 mph 26.5 mph N/A   Clear
7:55 PM 82.2 °F 27.1 °F 13% 29.65 in 10.0 mi South 19.6 mph 27.6 mph N/A   Clear
8:15 PM 79.7 °F 31.3 °F 17% 29.66 in 10.0 mi South 20.7 mph - N/A   Clear
8:35 PM 78.1 °F 31.1 °F 18% 29.66 in 10.0 mi South 23.0 mph 28.8 mph N/A   Clear
8:55 PM 77.0 °F 30.9 °F 19% 29.66 in 10.0 mi South 24.2 mph 29.9 mph N/A   Clear
9:15 PM 76.3 °F 30.6 °F 19% 29.67 in 10.0 mi South 23.0 mph 29.9 mph N/A   Clear
9:35 PM 75.4 °F 30.0 °F 19% 29.68 in 10.0 mi South 25.3 mph 28.8 mph N/A   Clear
9:55 PM 74.5 °F 29.3 °F 19% 29.69 in 10.0 mi South 21.9 mph 28.8 mph N/A   Clear
10:35 PM 72.9 °F 28.6 °F 19% 29.70 in 10.0 mi South 20.7 mph 29.9 mph N/A   Clear
10:55 PM 71.8 °F 28.4 °F 20% 29.71 in 10.0 mi South 24.2 mph 31.1 mph N/A   Clear
11:15 PM 71.2 °F 28.4 °F 20% 29.71 in 10.0 mi South 25.3 mph 31.1 mph N/A   Clear
11:35 PM 70.2 °F 28.9 °F 22% 29.71 in 10.0 mi South 21.9 mph 31.1 mph N/A   Clear
11:55 PM 69.6 °F 29.5 °F 22% 29.71 in 10.0 mi South 27.6 mph 32.2 mph N/A   Clear